Time;durP1;ratioP1;P1;durP2;ratioP2;P2;SDS_P1;SDS_P2;PMS_P1;PMS_P2;Temp;Humidity;BMP_temperature;BMP_pressure;BME280_temperature;BME280_humidity;BME280_pressure;Samples;Min_cycle;Max_cycle;Signal;HPM_P1;HPM_P2
2022/06/28 01:33:59;;;;;;;15.80;14.93;;;17.80;99.90;;;;;;5111483;23;20519;-73
2022/06/28 01:36:26;;;;;;;14.47;13.87;;;17.80;99.90;;;;;;4992968;28;20443;-73
2022/06/28 01:38:53;;;;;;;14.73;14.03;;;17.80;99.90;;;;;;4993084;28;20482;-73
2022/06/28 01:41:36;;;;;;;14.23;13.53;;;17.80;99.90;;;;;;4987125;28;20466;-73
2022/06/28 01:44:05;;;;;;;13.03;12.43;;;17.70;99.90;;;;;;4974247;28;20517;-73
2022/06/28 01:46:32;;;;;;;14.27;13.73;;;17.70;99.90;;;;;;4980487;28;20478;-73
2022/06/28 01:49:00;;;;;;;13.77;13.27;;;17.80;99.90;;;;;;4977885;28;20460;-73
2022/06/28 01:51:26;;;;;;;14.30;13.40;;;17.80;99.90;;;;;;4974180;28;20469;-73
2022/06/28 01:53:53;;;;;;;14.03;13.43;;;17.80;99.90;;;;;;4974365;28;20956;-73
2022/06/28 01:56:20;;;;;;;13.37;12.80;;;17.90;99.90;;;;;;4973998;28;20443;-73
2022/06/28 01:58:47;;;;;;;13.90;13.30;;;17.90;99.90;;;;;;4973803;28;20451;-73
2022/06/28 02:01:14;;;;;;;13.33;12.83;;;17.90;99.90;;;;;;4973595;28;20970;-73
2022/06/28 02:03:41;;;;;;;13.50;13.00;;;18.00;99.90;;;;;;4973979;28;21015;-73
2022/06/28 02:06:09;;;;;;;13.90;13.30;;;18.00;99.90;;;;;;4974240;28;20519;-74
2022/06/28 02:08:36;;;;;;;13.90;13.30;;;17.90;99.90;;;;;;4973944;28;20830;-73
2022/06/28 02:11:05;;;;;;;14.07;13.47;;;18.00;99.90;;;;;;4973605;28;20459;-72
2022/06/28 02:13:32;;;;;;;14.63;14.00;;;17.90;99.90;;;;;;4973371;28;20459;-73
2022/06/28 02:15:59;;;;;;;13.50;13.00;;;17.90;99.90;;;;;;4973565;28;20796;-72
2022/06/28 02:18:26;;;;;;;14.53;13.67;;;17.80;99.90;;;;;;4973765;28;20452;-72
2022/06/28 02:20:54;;;;;;;14.00;13.50;;;17.70;99.90;;;;;;4973575;28;20498;-72
2022/06/28 02:23:22;;;;;;;13.87;13.20;;;17.50;99.90;;;;;;4973507;28;20452;-74
2022/06/28 02:25:49;;;;;;;14.03;13.50;;;17.40;99.90;;;;;;4973054;28;21020;-72
2022/06/28 02:28:16;;;;;;;14.17;13.47;;;17.40;99.90;;;;;;4973314;28;20462;-72
2022/06/28 02:30:43;;;;;;;14.73;14.10;;;17.20;99.90;;;;;;4972189;28;20965;-72
2022/06/28 02:33:09;;;;;;;14.27;13.57;;;17.20;99.90;;;;;;4973083;28;20489;-72
2022/06/28 02:41:06;;;;;;;14.50;13.80;;;16.90;99.90;;;;;;4973705;28;20451;-73
2022/06/28 02:43:33;;;;;;;15.00;14.30;;;16.80;99.90;;;;;;4973736;28;20456;-73
2022/06/28 02:45:59;;;;;;;14.50;13.70;;;16.70;99.90;;;;;;4973025;28;20905;-73
2022/06/28 02:48:26;;;;;;;15.40;14.50;;;16.70;99.90;;;;;;4983307;28;20463;-73
2022/06/28 02:50:52;;;;;;;14.90;14.10;;;16.60;99.90;;;;;;4973128;28;20451;-73
2022/06/28 02:53:19;;;;;;;14.87;14.17;;;16.60;99.90;;;;;;4972790;28;20451;-73
2022/06/28 02:55:47;;;;;;;14.77;14.00;;;16.60;99.90;;;;;;4972574;28;20459;-72
2022/06/28 02:58:14;;;;;;;14.10;13.47;;;16.40;99.90;;;;;;4972598;28;20459;-72
2022/06/28 03:00:41;;;;;;;14.30;13.70;;;16.40;99.90;;;;;;4973043;28;20502;-72
2022/06/28 03:03:07;;;;;;;14.53;13.83;;;16.40;99.90;;;;;;4972792;28;20456;-73
2022/06/28 03:05:35;;;;;;;15.43;14.73;;;16.40;99.90;;;;;;4972421;28;20825;-72
2022/06/28 03:08:02;;;;;;;16.00;15.20;;;16.40;99.90;;;;;;4972685;28;20913;-72
2022/06/28 03:10:28;;;;;;;14.93;14.30;;;16.30;99.90;;;;;;4972756;28;20447;-72
2022/06/28 03:12:56;;;;;;;14.80;14.20;;;16.30;99.90;;;;;;4972752;28;20458;-72
2022/06/28 03:15:23;;;;;;;15.20;14.50;;;16.30;99.90;;;;;;4972624;28;20846;-72
2022/06/28 03:17:51;;;;;;;15.40;14.60;;;16.30;99.90;;;;;;4972625;28;20474;-72
2022/06/28 03:20:17;;;;;;;15.93;14.80;;;16.20;99.90;;;;;;4972622;28;20456;-73
2022/06/28 03:22:44;;;;;;;15.00;14.17;;;16.20;99.90;;;;;;4972410;28;20456;-72
2022/06/28 03:25:11;;;;;;;15.07;14.37;;;16.20;99.90;;;;;;4972490;28;20451;-72
2022/06/28 03:27:38;;;;;;;14.97;14.27;;;16.30;99.90;;;;;;4972452;28;21009;-73
2022/06/28 03:30:08;;;;;;;14.53;13.90;;;16.30;99.90;;;;;;4972208;28;20911;-73
2022/06/28 03:32:35;;;;;;;16.33;15.23;;;16.30;99.90;;;;;;4972166;28;20487;-72
2022/06/28 03:35:02;;;;;;;15.63;14.50;;;16.30;99.90;;;;;;4972156;28;20459;-72
2022/06/28 03:37:29;;;;;;;15.60;14.63;;;16.40;99.90;;;;;;4972053;28;20454;-73
2022/06/28 03:39:55;;;;;;;15.80;14.80;;;16.50;99.90;;;;;;4972288;28;20463;-73
2022/06/28 03:42:23;;;;;;;16.00;15.20;;;16.60;99.90;;;;;;4972201;28;20440;-73
2022/06/28 03:44:50;;;;;;;16.60;15.80;;;16.60;99.90;;;;;;4972443;28;20863;-73
2022/06/28 03:47:18;;;;;;;15.57;14.87;;;16.70;99.90;;;;;;4972003;28;20554;-72
2022/06/28 03:49:47;;;;;;;15.63;14.63;;;16.70;99.90;;;;;;4982497;28;20460;-72
2022/06/28 03:52:14;;;;;;;15.30;14.70;;;16.80;99.90;;;;;;4971738;28;20483;-72
2022/06/28 03:54:41;;;;;;;15.50;14.70;;;16.80;99.90;;;;;;4972092;28;20463;-73
2022/06/28 03:57:08;;;;;;;16.07;15.37;;;16.90;99.90;;;;;;4972109;28;20443;-73
2022/06/28 03:59:36;;;;;;;16.10;15.20;;;16.90;99.90;;;;;;4971777;28;20456;-72
2022/06/28 04:02:03;;;;;;;17.33;16.20;;;16.90;99.90;;;;;;4971796;28;20452;-72
2022/06/28 04:04:32;;;;;;;15.80;15.10;;;17.10;99.90;;;;;;4971648;28;20462;-72
2022/06/28 04:06:59;;;;;;;16.10;14.60;;;17.10;99.90;;;;;;4971578;28;20530;-72
2022/06/28 04:09:26;;;;;;;16.00;15.30;;;17.10;99.90;;;;;;4971747;28;20459;-72
2022/06/28 04:11:53;;;;;;;17.00;16.20;;;17.10;99.90;;;;;;4971603;28;20460;-73
2022/06/28 04:14:20;;;;;;;16.87;16.07;;;17.20;99.90;;;;;;4971552;28;20522;-73
2022/06/28 04:16:46;;;;;;;17.47;16.50;;;17.30;99.90;;;;;;4971678;28;20458;-73
2022/06/28 04:19:13;;;;;;;17.83;16.50;;;17.40;99.90;;;;;;4971589;28;20448;-73
2022/06/28 04:21:41;;;;;;;17.30;16.27;;;17.50;99.90;;;;;;4971375;28;20818;-73
2022/06/28 04:24:08;;;;;;;15.90;15.00;;;17.60;99.90;;;;;;4971471;28;20452;-73
2022/06/28 04:26:35;;;;;;;17.37;16.47;;;17.70;99.90;;;;;;4971383;28;20487;-73
2022/06/28 04:29:02;;;;;;;16.67;15.97;;;17.80;99.90;;;;;;4971351;28;20455;-73
2022/06/28 04:31:29;;;;;;;15.80;15.20;;;17.90;99.90;;;;;;4971097;28;20484;-74
2022/06/28 04:33:56;;;;;;;16.67;15.60;;;18.00;99.90;;;;;;4971055;28;20915;-73
2022/06/28 04:36:23;;;;;;;15.77;15.07;;;18.20;99.90;;;;;;4971477;28;20448;-73
2022/06/28 04:38:51;;;;;;;17.57;16.60;;;18.30;99.90;;;;;;4971273;28;20466;-73
2022/06/28 04:41:19;;;;;;;17.47;16.10;;;18.20;99.90;;;;;;4971331;28;20792;-72
2022/06/28 04:43:46;;;;;;;18.33;17.40;;;18.30;99.90;;;;;;4971353;28;20895;-71
2022/06/28 04:46:12;;;;;;;17.03;16.03;;;18.40;99.90;;;;;;4971208;28;20538;-72
2022/06/28 04:48:39;;;;;;;16.33;15.53;;;18.60;99.90;;;;;;4971367;28;20498;-74
2022/06/28 04:51:11;;;;;;;15.33;14.63;;;18.50;99.90;;;;;;4971428;28;20467;-73
2022/06/28 04:53:39;;;;;;;15.73;14.97;;;18.40;99.90;;;;;;4971812;28;20479;-74
2022/06/28 04:56:08;;;;;;;15.70;15.00;;;18.40;99.90;;;;;;4974953;28;20479;-74
2022/06/28 04:58:35;;;;;;;15.47;14.87;;;18.50;99.90;;;;;;4974737;28;20456;-73
2022/06/28 05:01:02;;;;;;;15.70;15.00;;;18.40;99.90;;;;;;4974637;28;20462;-73
2022/06/28 05:03:30;;;;;;;16.13;15.40;;;18.60;99.90;;;;;;4974814;28;20451;-74
2022/06/28 05:05:57;;;;;;;16.47;15.60;;;18.60;99.90;;;;;;4974959;28;20463;-74
2022/06/28 05:08:24;;;;;;;16.60;15.77;;;18.60;99.90;;;;;;4975443;28;20486;-75
2022/06/28 05:10:50;;;;;;;15.97;15.27;;;18.60;99.90;;;;;;4974869;28;20495;-73
2022/06/28 05:13:19;;;;;;;15.60;14.90;;;18.80;99.90;;;;;;4974794;28;20451;-75
2022/06/28 05:15:45;;;;;;;16.73;15.37;;;18.80;99.90;;;;;;4974736;28;20487;-75
2022/06/28 05:18:12;;;;;;;16.50;15.70;;;18.70;99.90;;;;;;4974857;28;20813;-76
2022/06/28 05:20:39;;;;;;;16.77;16.03;;;18.70;99.90;;;;;;4974698;28;20542;-74
2022/06/28 05:23:06;;;;;;;16.90;16.10;;;18.60;99.90;;;;;;4974646;28;20526;-75
2022/06/28 05:25:32;;;;;;;17.53;16.67;;;18.50;99.90;;;;;;4974613;28;20466;-74
2022/06/28 05:27:59;;;;;;;16.93;16.13;;;18.60;99.90;;;;;;4974387;28;21055;-73
2022/06/28 05:30:27;;;;;;;16.47;15.57;;;18.80;99.90;;;;;;4974472;28;20456;-76
2022/06/28 05:32:54;;;;;;;15.97;15.37;;;19.00;99.90;;;;;;4974193;28;20483;-75
2022/06/28 05:35:20;;;;;;;17.07;16.37;;;19.40;99.90;;;;;;4974478;28;20447;-76
2022/06/28 05:37:47;;;;;;;18.87;17.30;;;19.70;99.90;;;;;;4974446;28;20448;-76
2022/06/28 05:40:14;;;;;;;16.93;15.90;;;19.90;99.90;;;;;;4974451;28;20463;-76
2022/06/28 05:42:41;;;;;;;16.70;16.00;;;20.10;99.90;;;;;;4974583;28;20464;-75
2022/06/28 05:45:09;;;;;;;16.70;15.90;;;20.40;99.90;;;;;;4974551;28;20460;-75
2022/06/28 05:47:37;;;;;;;17.90;16.70;;;21.00;99.90;;;;;;4974632;28;20497;-75
2022/06/28 05:50:04;;;;;;;15.87;14.97;;;21.50;99.90;;;;;;4975015;28;20452;-75
2022/06/28 05:52:31;;;;;;;16.03;15.00;;;22.20;99.90;;;;;;4974550;28;20463;-75
2022/06/28 05:54:58;;;;;;;17.13;16.33;;;22.50;99.90;;;;;;4975644;28;20483;-79
2022/06/28 05:57:24;;;;;;;16.83;15.97;;;22.70;99.90;;;;;;4974875;28;20452;-78
2022/06/28 05:59:51;;;;;;;17.33;16.10;;;22.60;99.90;;;;;;4974641;28;20520;-76
2022/06/28 06:02:18;;;;;;;17.73;16.53;;;22.70;99.90;;;;;;4974135;28;20451;-75
2022/06/28 06:04:46;;;;;;;17.70;16.70;;;22.50;99.90;;;;;;4973678;28;20451;-76
2022/06/28 06:07:13;;;;;;;17.30;16.50;;;22.20;99.90;;;;;;4972805;28;20510;-75
2022/06/28 06:09:42;;;;;;;17.40;16.40;;;22.00;99.90;;;;;;4974157;28;20464;-75
2022/06/28 06:12:09;;;;;;;16.73;15.87;;;22.20;99.90;;;;;;4974372;28;20881;-76
2022/06/28 06:14:35;;;;;;;17.53;16.63;;;22.20;99.90;;;;;;4985216;28;20474;-76
2022/06/28 06:17:02;;;;;;;20.33;19.13;;;21.90;99.90;;;;;;4993435;28;20458;-76
2022/06/28 06:19:29;;;;;;;19.07;18.03;;;21.20;99.90;;;;;;4995361;28;20454;-76
2022/06/28 06:21:57;;;;;;;20.40;19.10;;;21.10;99.90;;;;;;4993048;28;20450;-75
2022/06/28 06:24:23;;;;;;;19.63;18.57;;;21.10;99.90;;;;;;4993354;28;20462;-75
2022/06/28 06:26:50;;;;;;;19.40;18.30;;;21.10;99.90;;;;;;4994375;28;20478;-77
2022/06/28 06:29:17;;;;;;;19.43;18.23;;;21.00;99.90;;;;;;4995056;28;20915;-75
2022/06/28 06:31:44;;;;;;;20.03;19.03;;;20.90;99.90;;;;;;4993061;28;20470;-75
2022/06/28 06:34:10;;;;;;;18.53;17.53;;;20.90;99.90;;;;;;4992670;28;20498;-74
2022/06/28 06:36:37;;;;;;;19.77;18.87;;;21.10;99.90;;;;;;4992624;28;20457;-75
2022/06/28 06:39:05;;;;;;;18.40;17.13;;;21.30;99.90;;;;;;4994237;28;20458;-75
2022/06/28 06:41:32;;;;;;;20.43;19.17;;;21.50;99.90;;;;;;4992652;28;20454;-75
2022/06/28 06:43:58;;;;;;;20.30;19.20;;;21.60;99.90;;;;;;4994194;28;20462;-78
2022/06/28 06:46:25;;;;;;;20.00;18.93;;;21.80;99.90;;;;;;4994327;28;20451;-76
2022/06/28 06:48:52;;;;;;;20.70;19.40;;;21.90;99.90;;;;;;4993020;28;20490;-76
2022/06/28 06:51:19;;;;;;;21.60;20.40;;;21.90;99.90;;;;;;4993018;28;20459;-76
2022/06/28 06:53:46;;;;;;;22.33;20.80;;;21.80;99.90;;;;;;4992775;28;20783;-76
2022/06/28 06:56:14;;;;;;;21.20;20.00;;;21.40;99.90;;;;;;4992964;28;20450;-77
2022/06/28 06:58:41;;;;;;;21.23;20.03;;;21.40;99.90;;;;;;4993015;28;20631;-76
2022/06/28 07:01:07;;;;;;;21.13;19.93;;;21.40;99.90;;;;;;4993457;28;20451;-76
2022/06/28 07:03:35;;;;;;;20.23;19.03;;;21.30;99.90;;;;;;4992929;28;20450;-77
2022/06/28 07:06:01;;;;;;;21.03;19.93;;;21.20;99.90;;;;;;4992157;28;20466;-76
2022/06/28 07:08:28;;;;;;;21.40;20.20;;;20.80;99.90;;;;;;4992879;28;20498;-76
2022/06/28 07:10:55;;;;;;;19.67;18.43;;;20.40;99.90;;;;;;4992782;28;20458;-76
2022/06/28 07:13:23;;;;;;;21.20;20.00;;;20.10;99.90;;;;;;4992649;28;20459;-76
2022/06/28 07:15:51;;;;;;;20.37;19.07;;;19.80;99.90;;;;;;4979417;28;20792;-76
2022/06/28 07:18:17;;;;;;;19.13;18.10;;;19.60;99.90;;;;;;4972414;28;20448;-76
2022/06/28 07:20:44;;;;;;;19.57;18.50;;;19.60;99.90;;;;;;4973467;28;20456;-76
2022/06/28 07:23:11;;;;;;;17.97;16.87;;;19.70;99.90;;;;;;4973376;28;20842;-79
2022/06/28 07:25:37;;;;;;;20.43;19.20;;;19.70;99.90;;;;;;4973376;28;20455;-76
2022/06/28 07:28:08;;;;;;;19.00;18.10;;;19.80;99.90;;;;;;4973224;28;20487;-78
2022/06/28 07:30:36;;;;;;;20.00;18.90;;;19.90;99.90;;;;;;4973071;28;20463;-78
2022/06/28 07:33:03;;;;;;;17.93;16.83;;;20.00;99.90;;;;;;4972953;28;20471;-76
2022/06/28 07:35:30;;;;;;;18.93;17.87;;;20.00;99.90;;;;;;4973041;28;20447;-76
2022/06/28 07:37:57;;;;;;;20.37;19.17;;;20.30;99.90;;;;;;4972693;28;20460;-79
2022/06/28 07:40:24;;;;;;;19.80;18.50;;;20.40;99.90;;;;;;4972804;28;20448;-78
2022/06/28 07:42:51;;;;;;;19.13;18.03;;;20.50;99.90;;;;;;4973383;28;20463;-77
2022/06/28 07:45:17;;;;;;;18.10;17.20;;;21.00;99.90;;;;;;4972588;28;20456;-78
2022/06/28 07:47:47;;;;;;;18.23;17.00;;;21.60;99.90;;;;;;4972698;28;21020;-78
2022/06/28 07:53:02;;;;;;;15.47;14.77;;;23.60;99.90;;;;;;4991807;28;20426;-79
2022/06/28 07:55:29;;;;;;;16.43;15.60;;;24.50;99.90;;;;;;4992937;28;20453;-79
2022/06/28 07:57:56;;;;;;;16.70;15.90;;;24.60;99.90;;;;;;4992719;28;20455;-79
2022/06/28 08:00:23;;;;;;;17.33;16.40;;;25.00;99.90;;;;;;4992118;28;20459;-79
2022/06/28 08:02:52;;;;;;;16.80;16.00;;;24.80;99.90;;;;;;4992974;28;20466;-79
2022/06/28 08:05:19;;;;;;;16.70;15.90;;;24.70;99.90;;;;;;4992001;28;20462;-79
2022/06/28 08:07:47;;;;;;;18.13;17.03;;;24.70;99.90;;;;;;4992751;28;20491;-79
2022/06/28 08:10:14;;;;;;;17.53;16.43;;;25.00;99.90;;;;;;4992391;28;20629;-79
2022/06/28 08:12:41;;;;;;;16.40;15.60;;;25.40;99.90;;;;;;4994870;28;20446;-80
2022/06/28 08:15:09;;;;;;;16.70;15.93;;;25.80;99.90;;;;;;4994362;28;20462;-80
2022/06/28 08:17:36;;;;;;;16.90;16.10;;;25.80;99.90;;;;;;5002751;28;20455;-81
2022/06/28 08:20:06;;;;;;;16.20;15.30;;;26.10;99.90;;;;;;4997515;28;20461;-82
2022/06/28 08:22:33;;;;;;;16.00;15.13;;;27.50;99.90;;;;;;4996876;28;20501;-82
2022/06/28 08:24:59;;;;;;;14.90;14.17;;;27.70;99.00;;;;;;4992637;28;20461;-81
2022/06/28 08:27:26;;;;;;;15.57;14.77;;;27.60;99.20;;;;;;4992582;28;20493;-83
2022/06/28 08:29:53;;;;;;;15.97;15.27;;;27.90;99.30;;;;;;4996110;28;20461;-82
2022/06/28 08:32:21;;;;;;;15.50;14.80;;;28.80;95.90;;;;;;4998872;28;20550;-83
2022/06/28 08:34:48;;;;;;;16.67;15.20;;;29.20;94.80;;;;;;4999879;28;20513;-82
2022/06/28 08:37:17;;;;;;;16.73;15.83;;;29.00;94.20;;;;;;4998293;28;20455;-83
2022/06/28 08:39:44;;;;;;;16.80;16.07;;;28.60;94.80;;;;;;4998086;28;20450;-83
2022/06/28 08:42:12;;;;;;;14.97;14.27;;;28.00;96.60;;;;;;4998067;28;20494;-82
2022/06/28 08:44:40;;;;;;;15.57;14.87;;;28.20;96.20;;;;;;5005186;28;20459;-82
2022/06/28 08:47:13;;;;;;;16.20;15.50;;;29.20;93.80;;;;;;5006078;28;20791;-83
2022/06/28 08:49:48;;;;;;;16.20;15.50;;;30.30;91.90;;;;;;5005001;28;20443;-83
2022/06/28 08:52:18;;;;;;;15.70;15.00;;;29.80;92.20;;;;;;4997511;28;20457;-84
2022/06/28 08:54:47;;;;;;;15.47;14.70;;;28.80;93.60;;;;;;4999952;28;20810;-83
2022/06/28 08:57:14;;;;;;;15.80;15.10;;;28.40;94.20;;;;;;5000830;28;21015;-84
2022/06/28 08:59:41;;;;;;;15.03;14.23;;;27.50;94.70;;;;;;5002321;28;20450;-82
2022/06/28 09:02:09;;;;;;;14.60;13.97;;;27.50;95.70;;;;;;5003453;28;20442;-82
2022/06/28 09:04:35;;;;;;;14.70;14.00;;;27.30;96.40;;;;;;4997947;28;20442;-83
2022/06/28 09:07:02;;;;;;;15.77;14.97;;;27.30;96.90;;;;;;4998488;28;20466;-85
2022/06/28 09:09:30;;;;;;;14.13;13.53;;;27.60;95.80;;;;;;4998314;28;20482;-83
2022/06/28 09:11:58;;;;;;;14.50;13.90;;;28.10;94.50;;;;;;4995703;28;20446;-82
2022/06/28 09:14:27;;;;;;;14.33;13.83;;;28.00;93.70;;;;;;4996467;28;20463;-82
2022/06/28 09:16:54;;;;;;;14.67;14.13;;;28.20;93.70;;;;;;4996103;28;20876;-82
2022/06/28 09:19:33;;;;;;;13.87;13.27;;;28.10;93.80;;;;;;4996978;28;20458;-82
2022/06/28 09:22:00;;;;;;;14.00;13.50;;;28.00;94.20;;;;;;4997330;28;20956;-84
2022/06/28 09:24:30;;;;;;;14.33;13.53;;;27.80;94.00;;;;;;4998497;28;20447;-83
2022/06/28 09:27:03;;;;;;;13.97;13.47;;;27.10;95.10;;;;;;5001518;28;20457;-82
2022/06/28 09:29:30;;;;;;;14.37;13.77;;;27.60;94.60;;;;;;4998603;28;20494;-83
2022/06/28 09:31:57;;;;;;;13.23;12.73;;;28.40;94.10;;;;;;4998871;28;20475;-84
2022/06/28 09:34:24;;;;;;;14.03;13.43;;;28.40;92.10;;;;;;5001499;28;20470;-83
2022/06/28 09:36:55;;;;;;;14.17;13.43;;;28.00;93.00;;;;;;5006805;28;20435;-83
2022/06/28 09:39:22;;;;;;;14.33;13.53;;;28.70;92.30;;;;;;5003911;28;20552;-81
2022/06/28 09:41:52;;;;;;;14.23;13.63;;;29.00;91.80;;;;;;5001047;28;20454;-83
2022/06/28 09:44:24;;;;;;;13.40;12.90;;;29.50;91.00;;;;;;5001572;28;20458;-79
2022/06/28 09:46:52;;;;;;;15.00;14.30;;;28.70;91.60;;;;;;4995461;28;20459;-82
2022/06/28 09:49:19;;;;;;;13.30;12.80;;;28.40;92.50;;;;;;4997193;28;20836;-83
2022/06/28 09:51:47;;;;;;;13.07;12.53;;;27.70;93.30;;;;;;4998785;28;20450;-83
2022/06/28 09:54:14;;;;;;;14.20;13.23;;;27.50;93.50;;;;;;5004016;28;20489;-84
2022/06/28 09:56:42;;;;;;;13.60;13.10;;;28.50;92.20;;;;;;4999041;28;20455;-83
2022/06/28 09:59:12;;;;;;;13.07;12.57;;;29.40;90.10;;;;;;4998311;28;20458;-83
2022/06/28 10:01:41;;;;;;;13.53;12.93;;;30.70;86.90;;;;;;4987801;28;20471;-83
2022/06/28 10:04:08;;;;;;;13.60;13.03;;;31.70;83.60;;;;;;4975708;28;20456;-82
2022/06/28 10:06:35;;;;;;;14.07;13.33;;;31.50;83.00;;;;;;4978739;28;20447;-83
2022/06/28 10:09:05;;;;;;;15.17;14.47;;;30.50;84.60;;;;;;4977561;28;20491;-82
2022/06/28 10:15:01;;;;;;;13.30;12.80;;;30.40;88.40;;;;;;4975198;28;20680;-85
2022/06/28 10:17:23;;;;;;;13.17;12.67;;;29.60;88.40;;;;;;4987971;28;20450;-84
2022/06/28 10:19:52;;;;;;;13.57;13.07;;;29.80;86.70;;;;;;4996971;28;20584;-86
2022/06/28 10:22:20;;;;;;;13.00;12.60;;;31.30;84.10;;;;;;5016508;28;20502;-85
2022/06/28 10:24:52;;;;;;;13.80;13.30;;;32.60;79.60;;;;;;5007336;28;20435;-85
2022/06/28 10:27:21;;;;;;;13.70;13.20;;;33.00;78.30;;;;;;5000180;28;20453;-86
2022/06/28 10:30:22;;;;;;;13.23;12.83;;;33.50;74.90;;;;;;5019183;28;20576;-81
2022/06/28 10:32:50;;;;;;;13.13;12.73;;;34.20;71.60;;;;;;4995306;28;20505;-85
2022/06/28 10:36:03;;;;;;;13.70;13.20;;;34.30;69.10;;;;;;5012964;28;20578;-86
2022/06/28 10:38:31;;;;;;;14.47;13.73;;;33.70;69.30;;;;;;5013217;28;20446;-85
2022/06/28 10:41:13;;;;;;;13.90;13.40;;;32.80;71.90;;;;;;5013379;28;20450;-84
2022/06/28 10:43:49;;;;;;;13.97;13.37;;;31.20;76.50;;;;;;5013996;28;20453;-85
2022/06/28 10:46:17;;;;;;;13.37;12.87;;;29.80;81.10;;;;;;5013792;28;20445;-85
2022/06/28 10:49:10;;;;;;;13.27;12.73;;;29.00;85.40;;;;;;5013309;28;20490;-84
2022/06/28 10:51:42;;;;;;;13.60;13.10;;;29.40;84.90;;;;;;5015739;28;20525;-86
2022/06/28 10:54:11;;;;;;;12.70;12.30;;;30.50;82.00;;;;;;5014604;28;20525;-85
2022/06/28 10:56:41;;;;;;;14.23;13.63;;;31.00;79.30;;;;;;5012842;28;20454;-84
2022/06/28 10:59:10;;;;;;;13.63;12.93;;;31.40;78.30;;;;;;5014219;28;20449;-84
2022/06/28 11:01:59;;;;;;;14.13;13.53;;;32.30;75.10;;;;;;5008654;28;20454;-85
2022/06/28 11:04:29;;;;;;;13.80;13.30;;;31.90;74.60;;;;;;4996154;28;20462;-85
2022/06/28 11:06:59;;;;;;;13.47;12.97;;;32.10;74.10;;;;;;4993650;28;20462;-85
2022/06/28 11:09:34;;;;;;;14.87;14.00;;;31.90;75.50;;;;;;4994307;28;20479;-84
2022/06/28 11:12:12;;;;;;;13.80;13.30;;;31.10;76.30;;;;;;4994072;28;20821;-86
2022/06/28 11:14:51;;;;;;;13.73;13.13;;;29.80;80.20;;;;;;4994161;28;20474;-84
2022/06/28 11:17:22;;;;;;;13.43;12.93;;;29.40;82.20;;;;;;4999519;28;20457;-84
2022/06/28 11:19:54;;;;;;;14.07;13.50;;;29.60;82.20;;;;;;5013840;28;20798;-85
2022/06/28 11:22:26;;;;;;;13.40;12.90;;;29.30;81.70;;;;;;5004759;28;20471;-85
2022/06/28 11:24:54;;;;;;;13.30;12.90;;;29.10;83.10;;;;;;4994337;28;20933;-84
2022/06/28 11:27:21;;;;;;;12.50;12.00;;;29.00;84.00;;;;;;4993921;28;20509;-85
2022/06/28 11:29:49;;;;;;;11.83;11.33;;;28.90;83.00;;;;;;4993060;28;20964;-84
2022/06/28 11:32:19;;;;;;;12.90;12.40;;;28.90;81.00;;;;;;4992444;28;20482;-84
2022/06/28 11:34:58;;;;;;;13.63;12.93;;;28.80;80.90;;;;;;4992156;28;20831;-81
2022/06/28 11:37:25;;;;;;;13.70;12.83;;;28.70;83.50;;;;;;4989742;28;20944;-75
2022/06/28 11:39:54;;;;;;;12.47;11.83;;;28.80;84.10;;;;;;4988393;28;20866;-76
2022/06/28 11:42:21;;;;;;;13.17;12.53;;;28.90;83.60;;;;;;4990159;28;20983;-76
2022/06/28 11:44:50;;;;;;;13.80;13.03;;;28.80;84.20;;;;;;4990883;28;20830;-75
2022/06/28 11:47:18;;;;;;;13.90;13.20;;;28.60;82.70;;;;;;4990826;28;20446;-76
2022/06/28 11:49:52;;;;;;;12.47;11.97;;;28.30;85.70;;;;;;4990726;28;20498;-74
2022/06/28 11:52:19;;;;;;;12.17;11.77;;;28.20;86.00;;;;;;4990598;28;20537;-74
2022/06/28 11:54:53;;;;;;;12.60;12.20;;;28.60;84.90;;;;;;4990509;28;21152;-73
2022/06/28 11:57:20;;;;;;;12.70;12.20;;;28.90;84.30;;;;;;4990655;28;20457;-76
2022/06/28 11:59:58;;;;;;;12.00;11.60;;;28.80;84.40;;;;;;4990454;28;20451;-74
2022/06/28 12:02:51;;;;;;;12.00;11.43;;;28.00;87.10;;;;;;4990753;28;20450;-77
2022/06/28 12:05:30;;;;;;;12.87;12.37;;;27.50;88.50;;;;;;4990430;28;20455;-77
2022/06/28 12:07:57;;;;;;;11.23;10.80;;;27.40;90.40;;;;;;4990405;28;20455;-77
2022/06/28 12:10:25;;;;;;;12.53;11.93;;;27.80;89.70;;;;;;4990312;28;20576;-75
2022/06/28 12:12:52;;;;;;;12.53;11.93;;;28.40;86.70;;;;;;4990850;28;20451;-76
2022/06/28 12:15:31;;;;;;;12.33;11.93;;;28.60;84.90;;;;;;4990386;28;20550;-76
2022/06/28 12:18:02;;;;;;;12.60;12.00;;;29.50;83.30;;;;;;4990366;28;20952;-76
2022/06/28 12:20:31;;;;;;;12.73;11.93;;;29.80;81.90;;;;;;4990502;28;20446;-76
2022/06/28 12:23:02;;;;;;;12.87;12.20;;;30.20;81.70;;;;;;4990430;28;20457;-75
2022/06/28 12:25:29;;;;;;;12.87;12.40;;;29.40;80.50;;;;;;4990209;28;20860;-75
2022/06/28 12:27:56;;;;;;;13.13;12.63;;;29.30;82.20;;;;;;4990453;28;20454;-76
2022/06/28 12:30:25;;;;;;;12.43;11.93;;;29.10;82.70;;;;;;4990560;28;20494;-76
2022/06/28 12:32:52;;;;;;;12.40;12.00;;;29.10;83.00;;;;;;4990431;28;20526;-76
2022/06/28 12:35:21;;;;;;;12.53;12.03;;;29.60;83.20;;;;;;4990334;28;20454;-76
2022/06/28 12:37:49;;;;;;;12.50;12.10;;;29.40;81.50;;;;;;4990438;28;20486;-75
2022/06/28 12:40:15;;;;;;;12.60;12.10;;;28.90;82.30;;;;;;4990219;28;20447;-75
2022/06/28 12:42:42;;;;;;;12.60;12.10;;;28.50;84.50;;;;;;4990138;28;20462;-75
2022/06/28 12:45:10;;;;;;;12.67;12.17;;;28.40;85.90;;;;;;4990588;28;20455;-76
2022/06/28 12:47:38;;;;;;;11.50;11.10;;;28.20;83.00;;;;;;4990435;28;20848;-75
2022/06/28 12:50:08;;;;;;;11.20;10.80;;;28.10;83.30;;;;;;4990169;28;20490;-75
2022/06/28 12:52:37;;;;;;;11.90;11.40;;;28.30;84.10;;;;;;4990244;28;20462;-76
2022/06/28 12:55:05;;;;;;;11.50;11.00;;;28.10;85.70;;;;;;4990152;28;20830;-76
2022/06/28 12:57:32;;;;;;;12.73;12.13;;;28.40;85.30;;;;;;4990294;28;20458;-76
2022/06/28 12:59:58;;;;;;;12.80;12.40;;;28.80;84.00;;;;;;4989943;28;20455;-75
2022/06/28 13:02:25;;;;;;;12.53;12.00;;;28.70;81.30;;;;;;4990123;28;20446;-75
2022/06/28 13:04:52;;;;;;;12.70;12.20;;;28.80;82.80;;;;;;4990073;28;20471;-73
2022/06/28 13:07:21;;;;;;;12.30;11.90;;;28.80;82.20;;;;;;4990117;28;20829;-76
2022/06/28 13:09:49;;;;;;;12.60;12.00;;;28.60;82.20;;;;;;4990057;28;20487;-76
2022/06/28 13:12:16;;;;;;;11.53;11.10;;;28.30;79.80;;;;;;4990108;28;20447;-77
2022/06/28 13:14:43;;;;;;;10.47;10.07;;;28.60;81.30;;;;;;4990082;28;20756;-74
2022/06/28 13:17:10;;;;;;;12.37;11.87;;;28.50;81.10;;;;;;4994085;28;20455;-76
2022/06/28 13:19:36;;;;;;;12.60;12.10;;;28.60;82.00;;;;;;4993946;28;20450;-76
2022/06/28 13:22:03;;;;;;;12.40;11.90;;;28.60;81.40;;;;;;4993704;28;20458;-77
2022/06/28 13:24:30;;;;;;;12.17;11.70;;;28.40;81.50;;;;;;4993068;28;20725;-74
2022/06/28 13:26:59;;;;;;;13.13;12.53;;;28.60;81.50;;;;;;4993274;28;20908;-74
2022/06/28 13:29:25;;;;;;;12.17;11.57;;;29.30;80.00;;;;;;4993429;28;20501;-77
2022/06/28 13:31:52;;;;;;;12.33;11.93;;;29.50;80.50;;;;;;4993395;28;20474;-75
2022/06/28 13:34:19;;;;;;;12.33;11.93;;;30.10;78.90;;;;;;4993194;28;21003;-75
2022/06/28 13:36:45;;;;;;;13.20;12.50;;;30.80;76.80;;;;;;4993307;28;20450;-75
2022/06/28 13:39:12;;;;;;;12.27;11.87;;;30.40;75.00;;;;;;4993199;28;20522;-74
2022/06/28 13:41:39;;;;;;;11.97;11.57;;;29.60;75.70;;;;;;4993366;28;20451;-74
2022/06/28 13:44:08;;;;;;;11.63;11.13;;;29.20;78.00;;;;;;4993156;28;20454;-75
2022/06/28 13:46:35;;;;;;;12.07;11.57;;;28.80;79.10;;;;;;4993051;28;20450;-75
2022/06/28 13:49:02;;;;;;;12.20;11.70;;;28.70;79.60;;;;;;4992708;28;20457;-74
2022/06/28 13:51:31;;;;;;;10.67;10.20;;;29.20;78.50;;;;;;4992854;28;20461;-74
2022/06/28 13:53:58;;;;;;;12.47;11.50;;;29.60;77.10;;;;;;4992914;28;20945;-75
2022/06/28 13:56:25;;;;;;;12.40;12.00;;;29.90;76.80;;;;;;4993052;28;20451;-74
2022/06/28 13:58:51;;;;;;;11.90;11.40;;;29.70;75.30;;;;;;4992867;28;20686;-74
2022/06/28 14:01:19;;;;;;;11.13;10.73;;;29.30;78.70;;;;;;4992764;28;20490;-76
2022/06/28 14:03:46;;;;;;;12.70;12.10;;;29.10;75.50;;;;;;4992612;28;20451;-75
2022/06/28 14:06:13;;;;;;;12.10;11.60;;;29.60;76.80;;;;;;4992472;28;20510;-75
2022/06/28 14:08:40;;;;;;;12.27;11.87;;;29.50;77.00;;;;;;4992734;28;20477;-74
2022/06/28 14:11:07;;;;;;;12.47;12.07;;;29.50;76.80;;;;;;4992874;28;21042;-74
2022/06/28 14:13:34;;;;;;;12.10;11.50;;;29.40;77.00;;;;;;4992542;28;20458;-74
2022/06/28 14:16:01;;;;;;;11.93;11.50;;;28.60;78.40;;;;;;4992324;28;21008;-74
2022/06/28 14:18:29;;;;;;;12.10;11.70;;;28.40;80.00;;;;;;4992381;28;20454;-75